Terminal Aerodrome Forecast
Issued by NWS Shreveport, LA

Home | Current Version | Previous Version | Text Only | Print | Product List | Glossary On
Versions: 1 2 3 4 5 6 7 8 9 10 11 12 13 14 15 16 17
000
FTUS44 KSHV 280522
TAFGGG
TAF
KGGG 280522Z 2806/2906 VRB03KT P6SM BKN045 BKN100
     FM281000 VRB03KT 6SM BR SCT035 OVC045
      TEMPO 2814/2817 5SM -TSRA BR BKN030CB OVC045
     FM281900 08008KT P6SM BKN050
     FM282200 06007KT P6SM BKN050 OVC250
     FM290100 08005KT P6SM BKN140 BKN250=

USA.gov is the U.S. government's official web portal to all federal, state and local government web resources and services.